Schwenksville, Pennsylvania
Current Conditions -  °F | °C
As of 12:54 PM on Monday 24 Nov 2014 (Local Time) from KPTW Reporting Station
Broken Clouds Broken Clouds  
Wind Chill: 68°   Ceiling: 2800
Heat Index: 68°   Visibility: 10mi
Dew Point: 56°   Wind: 16mph
Humidity: 65%   Direction: 210°SSW
Pressure: 29.62"   Gusts: 29mph
Location:  40.26°N, 75.46°W
Report Text: KPTW 241754Z AUTO 21014G25KT 10SM BKN028 20/13 A2962 RMK AO2 PK WND 19028/1720 SLP028 T02000133 10206 20167 57020
Loading
Personal Weather Stations






























Interactive Weather Map New forecast layout! Learn more

10-Day Weather Forecast

Advertisements
Track Severe Weather on mobile